sensor_id;sensor_type;location;lat;lon;timestamp;P1;durP1;ratioP1;P2;durP2;ratioP2
2161;SDS011;1087;50.226;8.682;2022-11-02T00:00:37;8.40;;;4.93;;
2161;SDS011;1087;50.226;8.682;2022-11-02T00:03:05;6.33;;;4.47;;
2161;SDS011;1087;50.226;8.682;2022-11-02T00:05:30;8.83;;;4.80;;
2161;SDS011;1087;50.226;8.682;2022-11-02T00:07:56;6.80;;;4.57;;
2161;SDS011;1087;50.226;8.682;2022-11-02T00:10:22;8.43;;;4.33;;
2161;SDS011;1087;50.226;8.682;2022-11-02T00:12:48;6.07;;;4.37;;
2161;SDS011;1087;50.226;8.682;2022-11-02T00:15:15;9.23;;;5.57;;
2161;SDS011;1087;50.226;8.682;2022-11-02T00:17:41;6.23;;;4.53;;
2161;SDS011;1087;50.226;8.682;2022-11-02T00:20:10;10.67;;;6.80;;
2161;SDS011;1087;50.226;8.682;2022-11-02T00:22:38;9.77;;;6.70;;
2161;SDS011;1087;50.226;8.682;2022-11-02T00:25:05;14.27;;;8.23;;
2161;SDS011;1087;50.226;8.682;2022-11-02T00:27:33;14.03;;;8.47;;
2161;SDS011;1087;50.226;8.682;2022-11-02T00:29:59;12.93;;;8.67;;
2161;SDS011;1087;50.226;8.682;2022-11-02T00:32:25;17.00;;;10.27;;
2161;SDS011;1087;50.226;8.682;2022-11-02T00:34:50;8.97;;;7.13;;
2161;SDS011;1087;50.226;8.682;2022-11-02T00:37:16;8.67;;;6.63;;
2161;SDS011;1087;50.226;8.682;2022-11-02T00:39:41;7.50;;;5.90;;
2161;SDS011;1087;50.226;8.682;2022-11-02T00:42:07;6.67;;;5.67;;
2161;SDS011;1087;50.226;8.682;2022-11-02T00:44:33;7.23;;;5.50;;
2161;SDS011;1087;50.226;8.682;2022-11-02T00:46:58;9.87;;;5.67;;
2161;SDS011;1087;50.226;8.682;2022-11-02T00:49:24;10.67;;;5.20;;
2161;SDS011;1087;50.226;8.682;2022-11-02T00:51:49;7.63;;;5.77;;
2161;SDS011;1087;50.226;8.682;2022-11-02T00:54:15;8.53;;;4.80;;
2161;SDS011;1087;50.226;8.682;2022-11-02T00:56:40;9.87;;;5.03;;
2161;SDS011;1087;50.226;8.682;2022-11-02T00:59:06;5.60;;;4.87;;
2161;SDS011;1087;50.226;8.682;2022-11-02T01:01:31;8.03;;;4.80;;
2161;SDS011;1087;50.226;8.682;2022-11-02T01:03:57;10.97;;;4.60;;
2161;SDS011;1087;50.226;8.682;2022-11-02T01:06:22;8.47;;;4.13;;
2161;SDS011;1087;50.226;8.682;2022-11-02T01:08:48;9.40;;;5.37;;
2161;SDS011;1087;50.226;8.682;2022-11-02T01:11:15;9.50;;;4.90;;
2161;SDS011;1087;50.226;8.682;2022-11-02T01:13:42;10.40;;;4.33;;
2161;SDS011;1087;50.226;8.682;2022-11-02T01:16:09;6.53;;;4.80;;
2161;SDS011;1087;50.226;8.682;2022-11-02T01:18:35;6.00;;;4.53;;
2161;SDS011;1087;50.226;8.682;2022-11-02T01:21:00;7.47;;;4.33;;
2161;SDS011;1087;50.226;8.682;2022-11-02T01:23:26;9.20;;;5.00;;
2161;SDS011;1087;50.226;8.682;2022-11-02T01:25:51;9.07;;;4.00;;
2161;SDS011;1087;50.226;8.682;2022-11-02T01:28:17;11.10;;;6.30;;
2161;SDS011;1087;50.226;8.682;2022-11-02T01:30:43;5.30;;;3.97;;
2161;SDS011;1087;50.226;8.682;2022-11-02T01:33:10;7.07;;;4.27;;
2161;SDS011;1087;50.226;8.682;2022-11-02T01:35:36;9.17;;;4.87;;
2161;SDS011;1087;50.226;8.682;2022-11-02T01:38:01;10.73;;;4.47;;
2161;SDS011;1087;50.226;8.682;2022-11-02T01:40:32;10.47;;;5.60;;
2161;SDS011;1087;50.226;8.682;2022-11-02T01:42:59;8.60;;;5.03;;
2161;SDS011;1087;50.226;8.682;2022-11-02T01:45:24;9.97;;;4.73;;
2161;SDS011;1087;50.226;8.682;2022-11-02T01:47:51;6.50;;;4.90;;
2161;SDS011;1087;50.226;8.682;2022-11-02T01:50:18;7.17;;;4.77;;
2161;SDS011;1087;50.226;8.682;2022-11-02T01:52:46;5.63;;;3.93;;
2161;SDS011;1087;50.226;8.682;2022-11-02T01:55:13;4.80;;;4.10;;
2161;SDS011;1087;50.226;8.682;2022-11-02T01:57:46;8.80;;;4.90;;
2161;SDS011;1087;50.226;8.682;2022-11-02T02:00:17;6.03;;;3.93;;
2161;SDS011;1087;50.226;8.682;2022-11-02T02:05:31;9.20;;;5.70;;
2161;SDS011;1087;50.226;8.682;2022-11-02T02:07:59;6.50;;;4.47;;
2161;SDS011;1087;50.226;8.682;2022-11-02T02:10:26;10.27;;;4.77;;
2161;SDS011;1087;50.226;8.682;2022-11-02T02:12:52;13.33;;;6.27;;
2161;SDS011;1087;50.226;8.682;2022-11-02T02:15:18;6.97;;;5.00;;
2161;SDS011;1087;50.226;8.682;2022-11-02T02:17:50;9.57;;;5.57;;
2161;SDS011;1087;50.226;8.682;2022-11-02T02:33:55;12.20;;;7.67;;
2161;SDS011;1087;50.226;8.682;2022-11-02T02:36:30;12.00;;;6.73;;
2161;SDS011;1087;50.226;8.682;2022-11-02T02:41:59;10.23;;;5.00;;
2161;SDS011;1087;50.226;8.682;2022-11-02T02:44:37;6.83;;;4.47;;
2161;SDS011;1087;50.226;8.682;2022-11-02T02:47:10;6.70;;;4.67;;
2161;SDS011;1087;50.226;8.682;2022-11-02T02:49:49;10.70;;;5.93;;
2161;SDS011;1087;50.226;8.682;2022-11-02T02:52:18;10.17;;;5.83;;
2161;SDS011;1087;50.226;8.682;2022-11-02T02:54:45;7.80;;;5.10;;
2161;SDS011;1087;50.226;8.682;2022-11-02T02:57:14;8.47;;;5.20;;
2161;SDS011;1087;50.226;8.682;2022-11-02T02:59:46;7.90;;;5.80;;
2161;SDS011;1087;50.226;8.682;2022-11-02T03:02:18;10.73;;;5.80;;
2161;SDS011;1087;50.226;8.682;2022-11-02T03:04:46;9.70;;;5.73;;
2161;SDS011;1087;50.226;8.682;2022-11-02T03:07:13;10.57;;;5.53;;
2161;SDS011;1087;50.226;8.682;2022-11-02T03:09:45;9.27;;;6.97;;
2161;SDS011;1087;50.226;8.682;2022-11-02T03:12:38;7.80;;;6.33;;
2161;SDS011;1087;50.226;8.682;2022-11-02T03:15:15;11.87;;;6.00;;
2161;SDS011;1087;50.226;8.682;2022-11-02T03:23:37;10.30;;;7.60;;
2161;SDS011;1087;50.226;8.682;2022-11-02T03:28:40;11.53;;;6.53;;
2161;SDS011;1087;50.226;8.682;2022-11-02T03:31:35;8.80;;;4.97;;
2161;SDS011;1087;50.226;8.682;2022-11-02T03:36:39;8.90;;;5.70;;
2161;SDS011;1087;50.226;8.682;2022-11-02T03:39:14;10.30;;;4.90;;
2161;SDS011;1087;50.226;8.682;2022-11-02T03:41:43;10.70;;;5.67;;
2161;SDS011;1087;50.226;8.682;2022-11-02T03:44:16;7.47;;;5.20;;
2161;SDS011;1087;50.226;8.682;2022-11-02T03:46:46;7.33;;;4.87;;
2161;SDS011;1087;50.226;8.682;2022-11-02T03:49:15;8.43;;;5.10;;
2161;SDS011;1087;50.226;8.682;2022-11-02T03:51:43;8.20;;;4.90;;
2161;SDS011;1087;50.226;8.682;2022-11-02T03:54:18;6.53;;;5.60;;
2161;SDS011;1087;50.226;8.682;2022-11-02T03:56:55;7.33;;;5.40;;
2161;SDS011;1087;50.226;8.682;2022-11-02T03:59:23;9.70;;;5.73;;
2161;SDS011;1087;50.226;8.682;2022-11-02T04:01:49;6.87;;;4.90;;
2161;SDS011;1087;50.226;8.682;2022-11-02T04:04:16;6.87;;;4.60;;
2161;SDS011;1087;50.226;8.682;2022-11-02T04:06:42;7.93;;;5.27;;
2161;SDS011;1087;50.226;8.682;2022-11-02T04:09:09;6.33;;;4.63;;
2161;SDS011;1087;50.226;8.682;2022-11-02T04:11:36;7.40;;;4.60;;
2161;SDS011;1087;50.226;8.682;2022-11-02T04:14:20;10.40;;;4.87;;
2161;SDS011;1087;50.226;8.682;2022-11-02T04:17:04;5.60;;;4.20;;
2161;SDS011;1087;50.226;8.682;2022-11-02T04:19:49;7.93;;;5.47;;
2161;SDS011;1087;50.226;8.682;2022-11-02T04:22:14;6.57;;;5.43;;
2161;SDS011;1087;50.226;8.682;2022-11-02T04:24:58;11.57;;;5.20;;
2161;SDS011;1087;50.226;8.682;2022-11-02T04:27:43;9.73;;;4.77;;
2161;SDS011;1087;50.226;8.682;2022-11-02T04:30:11;6.57;;;5.27;;
2161;SDS011;1087;50.226;8.682;2022-11-02T04:32:42;8.43;;;4.60;;
2161;SDS011;1087;50.226;8.682;2022-11-02T04:35:28;8.57;;;5.33;;
2161;SDS011;1087;50.226;8.682;2022-11-02T04:37:54;7.03;;;4.30;;
2161;SDS011;1087;50.226;8.682;2022-11-02T04:40:38;7.77;;;4.77;;
2161;SDS011;1087;50.226;8.682;2022-11-02T04:43:04;5.73;;;4.57;;
2161;SDS011;1087;50.226;8.682;2022-11-02T04:45:30;8.83;;;4.60;;
2161;SDS011;1087;50.226;8.682;2022-11-02T04:47:59;8.63;;;5.37;;
2161;SDS011;1087;50.226;8.682;2022-11-02T04:50:25;8.90;;;4.83;;
2161;SDS011;1087;50.226;8.682;2022-11-02T04:52:55;6.43;;;4.63;;
2161;SDS011;1087;50.226;8.682;2022-11-02T04:55:25;6.57;;;4.73;;
2161;SDS011;1087;50.226;8.682;2022-11-02T04:57:51;9.43;;;5.03;;
2161;SDS011;1087;50.226;8.682;2022-11-02T05:00:17;5.93;;;5.00;;
2161;SDS011;1087;50.226;8.682;2022-11-02T05:02:47;13.27;;;4.60;;
2161;SDS011;1087;50.226;8.682;2022-11-02T05:05:14;6.73;;;4.87;;
2161;SDS011;1087;50.226;8.682;2022-11-02T05:07:41;7.43;;;4.83;;
2161;SDS011;1087;50.226;8.682;2022-11-02T05:10:07;8.27;;;4.80;;
2161;SDS011;1087;50.226;8.682;2022-11-02T05:12:33;8.20;;;4.60;;
2161;SDS011;1087;50.226;8.682;2022-11-02T05:14:59;9.33;;;4.43;;
2161;SDS011;1087;50.226;8.682;2022-11-02T05:17:25;8.53;;;4.53;;
2161;SDS011;1087;50.226;8.682;2022-11-02T05:19:50;8.03;;;4.57;;
2161;SDS011;1087;50.226;8.682;2022-11-02T05:22:16;6.83;;;4.23;;
2161;SDS011;1087;50.226;8.682;2022-11-02T05:24:41;9.13;;;4.90;;
2161;SDS011;1087;50.226;8.682;2022-11-02T05:27:08;7.00;;;4.60;;
2161;SDS011;1087;50.226;8.682;2022-11-02T05:29:34;8.10;;;5.40;;
2161;SDS011;1087;50.226;8.682;2022-11-02T05:32:00;8.30;;;5.67;;
2161;SDS011;1087;50.226;8.682;2022-11-02T05:34:25;8.50;;;5.10;;
2161;SDS011;1087;50.226;8.682;2022-11-02T05:36:51;8.80;;;4.80;;
2161;SDS011;1087;50.226;8.682;2022-11-02T05:39:17;9.10;;;4.97;;
2161;SDS011;1087;50.226;8.682;2022-11-02T05:41:42;6.80;;;4.33;;
2161;SDS011;1087;50.226;8.682;2022-11-02T05:44:08;9.30;;;4.50;;
2161;SDS011;1087;50.226;8.682;2022-11-02T05:46:33;6.17;;;5.10;;
2161;SDS011;1087;50.226;8.682;2022-11-02T05:48:59;8.20;;;5.20;;
2161;SDS011;1087;50.226;8.682;2022-11-02T05:51:24;9.53;;;5.87;;
2161;SDS011;1087;50.226;8.682;2022-11-02T05:53:50;9.23;;;4.70;;
2161;SDS011;1087;50.226;8.682;2022-11-02T05:56:15;12.17;;;6.10;;
2161;SDS011;1087;50.226;8.682;2022-11-02T05:58:41;11.90;;;6.63;;
2161;SDS011;1087;50.226;8.682;2022-11-02T06:01:06;12.40;;;6.40;;
2161;SDS011;1087;50.226;8.682;2022-11-02T06:03:34;8.43;;;5.07;;
2161;SDS011;1087;50.226;8.682;2022-11-02T06:06:01;9.07;;;5.70;;
2161;SDS011;1087;50.226;8.682;2022-11-02T06:08:32;9.33;;;7.23;;
2161;SDS011;1087;50.226;8.682;2022-11-02T06:11:02;9.70;;;4.90;;
2161;SDS011;1087;50.226;8.682;2022-11-02T06:13:37;9.93;;;5.70;;
2161;SDS011;1087;50.226;8.682;2022-11-02T06:16:04;7.33;;;5.10;;
2161;SDS011;1087;50.226;8.682;2022-11-02T06:18:33;8.23;;;4.60;;
2161;SDS011;1087;50.226;8.682;2022-11-02T06:20:59;7.00;;;5.10;;
2161;SDS011;1087;50.226;8.682;2022-11-02T06:23:25;8.27;;;5.60;;
2161;SDS011;1087;50.226;8.682;2022-11-02T06:25:52;7.70;;;5.03;;
2161;SDS011;1087;50.226;8.682;2022-11-02T06:28:19;8.80;;;5.70;;
2161;SDS011;1087;50.226;8.682;2022-11-02T06:30:45;14.07;;;5.53;;
2161;SDS011;1087;50.226;8.682;2022-11-02T06:33:11;8.47;;;5.10;;
2161;SDS011;1087;50.226;8.682;2022-11-02T06:35:37;7.87;;;5.57;;
2161;SDS011;1087;50.226;8.682;2022-11-02T06:38:02;9.47;;;4.57;;
2161;SDS011;1087;50.226;8.682;2022-11-02T06:40:28;8.67;;;4.77;;
2161;SDS011;1087;50.226;8.682;2022-11-02T06:42:56;5.37;;;4.67;;
2161;SDS011;1087;50.226;8.682;2022-11-02T06:45:25;6.80;;;4.03;;
2161;SDS011;1087;50.226;8.682;2022-11-02T06:47:51;9.27;;;3.97;;
2161;SDS011;1087;50.226;8.682;2022-11-02T06:50:16;7.20;;;4.23;;
2161;SDS011;1087;50.226;8.682;2022-11-02T06:52:42;10.10;;;4.70;;
2161;SDS011;1087;50.226;8.682;2022-11-02T06:55:09;6.10;;;3.90;;
2161;SDS011;1087;50.226;8.682;2022-11-02T06:57:35;10.00;;;4.30;;
2161;SDS011;1087;50.226;8.682;2022-11-02T07:00:05;4.57;;;4.13;;
2161;SDS011;1087;50.226;8.682;2022-11-02T07:02:33;6.60;;;3.77;;
2161;SDS011;1087;50.226;8.682;2022-11-02T07:04:59;7.80;;;4.67;;
2161;SDS011;1087;50.226;8.682;2022-11-02T07:07:26;5.60;;;4.50;;
2161;SDS011;1087;50.226;8.682;2022-11-02T07:09:51;7.57;;;4.50;;
2161;SDS011;1087;50.226;8.682;2022-11-02T07:12:17;7.70;;;5.10;;
2161;SDS011;1087;50.226;8.682;2022-11-02T07:14:43;10.40;;;4.50;;
2161;SDS011;1087;50.226;8.682;2022-11-02T07:17:08;9.97;;;4.67;;
2161;SDS011;1087;50.226;8.682;2022-11-02T07:19:34;10.10;;;4.80;;
2161;SDS011;1087;50.226;8.682;2022-11-02T07:22:00;7.70;;;4.10;;
2161;SDS011;1087;50.226;8.682;2022-11-02T07:24:25;6.33;;;3.80;;
2161;SDS011;1087;50.226;8.682;2022-11-02T07:26:51;8.43;;;4.13;;
2161;SDS011;1087;50.226;8.682;2022-11-02T07:29:16;8.60;;;3.70;;
2161;SDS011;1087;50.226;8.682;2022-11-02T07:31:42;6.53;;;3.90;;
2161;SDS011;1087;50.226;8.682;2022-11-02T07:34:09;6.23;;;3.67;;
2161;SDS011;1087;50.226;8.682;2022-11-02T07:36:35;14.20;;;4.87;;
2161;SDS011;1087;50.226;8.682;2022-11-02T07:39:00;9.70;;;5.10;;
2161;SDS011;1087;50.226;8.682;2022-11-02T07:41:26;9.60;;;5.13;;
2161;SDS011;1087;50.226;8.682;2022-11-02T07:43:51;8.67;;;5.23;;
2161;SDS011;1087;50.226;8.682;2022-11-02T07:46:17;6.10;;;3.80;;
2161;SDS011;1087;50.226;8.682;2022-11-02T07:48:43;6.77;;;4.70;;
2161;SDS011;1087;50.226;8.682;2022-11-02T07:51:08;9.50;;;4.17;;
2161;SDS011;1087;50.226;8.682;2022-11-02T07:53:35;10.23;;;4.23;;
2161;SDS011;1087;50.226;8.682;2022-11-02T07:56:01;9.53;;;4.83;;
2161;SDS011;1087;50.226;8.682;2022-11-02T07:58:27;4.57;;;4.07;;
2161;SDS011;1087;50.226;8.682;2022-11-02T08:00:55;6.27;;;3.73;;
2161;SDS011;1087;50.226;8.682;2022-11-02T08:03:22;7.73;;;4.30;;
2161;SDS011;1087;50.226;8.682;2022-11-02T08:05:47;10.40;;;4.80;;
2161;SDS011;1087;50.226;8.682;2022-11-02T08:08:16;5.30;;;3.87;;
2161;SDS011;1087;50.226;8.682;2022-11-02T08:10:44;9.73;;;4.87;;
2161;SDS011;1087;50.226;8.682;2022-11-02T08:13:12;10.33;;;4.27;;
2161;SDS011;1087;50.226;8.682;2022-11-02T08:15:39;6.20;;;4.40;;
2161;SDS011;1087;50.226;8.682;2022-11-02T08:18:06;10.87;;;4.13;;
2161;SDS011;1087;50.226;8.682;2022-11-02T08:20:36;5.93;;;3.30;;
2161;SDS011;1087;50.226;8.682;2022-11-02T08:23:02;7.60;;;5.70;;
2161;SDS011;1087;50.226;8.682;2022-11-02T08:25:28;8.07;;;4.63;;
2161;SDS011;1087;50.226;8.682;2022-11-02T08:27:57;7.17;;;4.60;;
2161;SDS011;1087;50.226;8.682;2022-11-02T08:30:27;10.60;;;4.87;;
2161;SDS011;1087;50.226;8.682;2022-11-02T08:32:54;8.97;;;4.30;;
2161;SDS011;1087;50.226;8.682;2022-11-02T08:35:25;9.77;;;3.67;;
2161;SDS011;1087;50.226;8.682;2022-11-02T08:37:51;8.37;;;4.20;;
2161;SDS011;1087;50.226;8.682;2022-11-02T08:40:18;7.90;;;4.20;;
2161;SDS011;1087;50.226;8.682;2022-11-02T08:42:44;7.30;;;4.20;;
2161;SDS011;1087;50.226;8.682;2022-11-02T08:45:10;8.13;;;4.80;;
2161;SDS011;1087;50.226;8.682;2022-11-02T08:47:39;6.23;;;4.10;;
2161;SDS011;1087;50.226;8.682;2022-11-02T08:50:05;10.93;;;4.40;;
2161;SDS011;1087;50.226;8.682;2022-11-02T08:52:35;8.20;;;5.03;;
2161;SDS011;1087;50.226;8.682;2022-11-02T08:55:02;6.60;;;4.20;;
2161;SDS011;1087;50.226;8.682;2022-11-02T08:57:27;13.83;;;4.80;;
2161;SDS011;1087;50.226;8.682;2022-11-02T08:59:53;8.03;;;4.90;;
2161;SDS011;1087;50.226;8.682;2022-11-02T09:02:18;6.77;;;4.20;;
2161;SDS011;1087;50.226;8.682;2022-11-02T09:04:44;5.17;;;4.07;;
2161;SDS011;1087;50.226;8.682;2022-11-02T09:07:09;11.23;;;4.47;;
2161;SDS011;1087;50.226;8.682;2022-11-02T09:09:35;14.57;;;4.57;;
2161;SDS011;1087;50.226;8.682;2022-11-02T09:12:00;6.00;;;3.10;;
2161;SDS011;1087;50.226;8.682;2022-11-02T09:14:26;9.60;;;4.13;;
2161;SDS011;1087;50.226;8.682;2022-11-02T09:16:51;8.03;;;3.50;;
2161;SDS011;1087;50.226;8.682;2022-11-02T09:19:17;4.57;;;2.97;;
2161;SDS011;1087;50.226;8.682;2022-11-02T09:21:42;9.20;;;4.80;;
2161;SDS011;1087;50.226;8.682;2022-11-02T09:24:08;7.70;;;3.90;;
2161;SDS011;1087;50.226;8.682;2022-11-02T09:26:34;3.90;;;2.47;;
2161;SDS011;1087;50.226;8.682;2022-11-02T09:28:59;9.63;;;2.67;;
2161;SDS011;1087;50.226;8.682;2022-11-02T09:31:25;9.20;;;3.37;;
2161;SDS011;1087;50.226;8.682;2022-11-02T09:33:53;7.90;;;4.40;;
2161;SDS011;1087;50.226;8.682;2022-11-02T09:36:18;5.00;;;2.97;;
2161;SDS011;1087;50.226;8.682;2022-11-02T09:38:44;8.33;;;4.13;;
2161;SDS011;1087;50.226;8.682;2022-11-02T09:43:49;5.90;;;3.37;;
2161;SDS011;1087;50.226;8.682;2022-11-02T09:46:26;6.23;;;2.97;;
2161;SDS011;1087;50.226;8.682;2022-11-02T09:48:59;8.37;;;2.70;;
2161;SDS011;1087;50.226;8.682;2022-11-02T09:51:36;5.33;;;2.23;;
2161;SDS011;1087;50.226;8.682;2022-11-02T09:54:07;6.17;;;2.20;;
2161;SDS011;1087;50.226;8.682;2022-11-02T09:56:44;6.07;;;3.20;;
2161;SDS011;1087;50.226;8.682;2022-11-02T09:59:14;5.93;;;2.43;;
2161;SDS011;1087;50.226;8.682;2022-11-02T10:10:33;5.27;;;2.50;;
2161;SDS011;1087;50.226;8.682;2022-11-02T10:13:10;6.20;;;2.93;;
2161;SDS011;1087;50.226;8.682;2022-11-02T10:16:16;6.97;;;2.90;;
2161;SDS011;1087;50.226;8.682;2022-11-02T10:18:57;10.00;;;3.07;;
2161;SDS011;1087;50.226;8.682;2022-11-02T10:21:28;8.33;;;2.77;;
2161;SDS011;1087;50.226;8.682;2022-11-02T10:23:58;6.87;;;2.60;;
2161;SDS011;1087;50.226;8.682;2022-11-02T10:26:32;9.37;;;3.00;;
2161;SDS011;1087;50.226;8.682;2022-11-02T10:29:16;6.43;;;2.87;;
2161;SDS011;1087;50.226;8.682;2022-11-02T10:32:03;8.97;;;2.70;;
2161;SDS011;1087;50.226;8.682;2022-11-02T10:34:29;5.93;;;2.30;;
2161;SDS011;1087;50.226;8.682;2022-11-02T10:42:32;3.47;;;1.90;;
2161;SDS011;1087;50.226;8.682;2022-11-02T10:50:52;5.53;;;2.77;;
2161;SDS011;1087;50.226;8.682;2022-11-02T10:53:22;6.57;;;2.93;;
2161;SDS011;1087;50.226;8.682;2022-11-02T11:01:17;6.83;;;2.20;;
2161;SDS011;1087;50.226;8.682;2022-11-02T11:04:04;5.43;;;2.30;;
2161;SDS011;1087;50.226;8.682;2022-11-02T11:06:30;4.47;;;2.17;;
2161;SDS011;1087;50.226;8.682;2022-11-02T11:09:02;5.90;;;2.37;;
2161;SDS011;1087;50.226;8.682;2022-11-02T11:11:37;7.33;;;1.97;;
2161;SDS011;1087;50.226;8.682;2022-11-02T11:14:04;3.13;;;1.87;;
2161;SDS011;1087;50.226;8.682;2022-11-02T11:16:42;4.90;;;2.10;;
2161;SDS011;1087;50.226;8.682;2022-11-02T11:19:53;6.20;;;2.00;;
2161;SDS011;1087;50.226;8.682;2022-11-02T11:22:22;7.83;;;2.40;;
2161;SDS011;1087;50.226;8.682;2022-11-02T11:24:49;4.00;;;1.90;;
2161;SDS011;1087;50.226;8.682;2022-11-02T11:27:18;4.70;;;1.90;;
2161;SDS011;1087;50.226;8.682;2022-11-02T11:29:51;8.30;;;1.90;;
2161;SDS011;1087;50.226;8.682;2022-11-02T11:32:23;3.93;;;2.43;;
2161;SDS011;1087;50.226;8.682;2022-11-02T11:34:57;5.30;;;2.27;;
2161;SDS011;1087;50.226;8.682;2022-11-02T11:37:27;3.90;;;1.80;;
2161;SDS011;1087;50.226;8.682;2022-11-02T11:39:54;7.73;;;2.67;;
2161;SDS011;1087;50.226;8.682;2022-11-02T11:42:31;7.03;;;2.50;;
2161;SDS011;1087;50.226;8.682;2022-11-02T11:45:00;5.03;;;2.43;;
2161;SDS011;1087;50.226;8.682;2022-11-02T11:47:42;9.10;;;1.80;;
2161;SDS011;1087;50.226;8.682;2022-11-02T11:50:12;5.63;;;1.97;;
2161;SDS011;1087;50.226;8.682;2022-11-02T11:52:40;4.63;;;1.97;;
2161;SDS011;1087;50.226;8.682;2022-11-02T11:55:25;6.47;;;1.80;;
2161;SDS011;1087;50.226;8.682;2022-11-02T12:00:36;5.23;;;1.73;;
2161;SDS011;1087;50.226;8.682;2022-11-02T12:03:06;4.30;;;2.33;;
2161;SDS011;1087;50.226;8.682;2022-11-02T12:05:41;5.07;;;2.10;;
2161;SDS011;1087;50.226;8.682;2022-11-02T12:08:31;7.47;;;2.07;;
2161;SDS011;1087;50.226;8.682;2022-11-02T12:11:26;4.57;;;2.43;;
2161;SDS011;1087;50.226;8.682;2022-11-02T12:30:24;4.57;;;1.80;;
2161;SDS011;1087;50.226;8.682;2022-11-02T12:35:48;4.97;;;3.13;;
2161;SDS011;1087;50.226;8.682;2022-11-02T12:38:22;3.30;;;2.10;;
2161;SDS011;1087;50.226;8.682;2022-11-02T12:41:08;4.30;;;2.00;;
2161;SDS011;1087;50.226;8.682;2022-11-02T12:43:43;5.03;;;1.80;;
2161;SDS011;1087;50.226;8.682;2022-11-02T12:54:46;3.97;;;1.70;;
2161;SDS011;1087;50.226;8.682;2022-11-02T12:57:15;6.20;;;2.00;;
2161;SDS011;1087;50.226;8.682;2022-11-02T12:59:44;7.80;;;2.07;;
2161;SDS011;1087;50.226;8.682;2022-11-02T13:02:17;3.10;;;1.87;;
2161;SDS011;1087;50.226;8.682;2022-11-02T13:04:51;3.50;;;1.90;;
2161;SDS011;1087;50.226;8.682;2022-11-02T13:07:31;6.53;;;2.10;;
2161;SDS011;1087;50.226;8.682;2022-11-02T13:10:12;3.97;;;1.80;;
2161;SDS011;1087;50.226;8.682;2022-11-02T13:12:46;5.50;;;2.17;;
2161;SDS011;1087;50.226;8.682;2022-11-02T13:15:16;3.83;;;1.97;;
2161;SDS011;1087;50.226;8.682;2022-11-02T13:17:51;7.07;;;2.23;;
2161;SDS011;1087;50.226;8.682;2022-11-02T13:20:24;5.60;;;1.83;;
2161;SDS011;1087;50.226;8.682;2022-11-02T13:23:10;3.53;;;1.73;;
2161;SDS011;1087;50.226;8.682;2022-11-02T13:25:46;4.97;;;1.93;;
2161;SDS011;1087;50.226;8.682;2022-11-02T13:28:32;5.73;;;1.90;;
2161;SDS011;1087;50.226;8.682;2022-11-02T13:31:05;8.90;;;2.20;;
2161;SDS011;1087;50.226;8.682;2022-11-02T13:33:57;6.10;;;2.10;;
2161;SDS011;1087;50.226;8.682;2022-11-02T13:36:26;7.10;;;2.23;;
2161;SDS011;1087;50.226;8.682;2022-11-02T13:38:54;7.87;;;2.77;;
2161;SDS011;1087;50.226;8.682;2022-11-02T13:44:52;4.93;;;1.87;;
2161;SDS011;1087;50.226;8.682;2022-11-02T13:50:37;3.20;;;1.67;;
2161;SDS011;1087;50.226;8.682;2022-11-02T13:53:06;2.20;;;1.73;;
2161;SDS011;1087;50.226;8.682;2022-11-02T13:55:41;3.57;;;2.00;;
2161;SDS011;1087;50.226;8.682;2022-11-02T13:58:27;4.37;;;1.87;;
2161;SDS011;1087;50.226;8.682;2022-11-02T14:00:58;4.83;;;1.93;;
2161;SDS011;1087;50.226;8.682;2022-11-02T14:06:20;6.70;;;2.17;;
2161;SDS011;1087;50.226;8.682;2022-11-02T14:08:52;5.00;;;1.67;;
2161;SDS011;1087;50.226;8.682;2022-11-02T14:11:34;6.30;;;2.57;;
2161;SDS011;1087;50.226;8.682;2022-11-02T14:14:13;7.07;;;3.90;;
2161;SDS011;1087;50.226;8.682;2022-11-02T14:19:23;4.70;;;2.17;;
2161;SDS011;1087;50.226;8.682;2022-11-02T14:22:11;6.00;;;2.20;;
2161;SDS011;1087;50.226;8.682;2022-11-02T14:48:13;3.80;;;1.97;;
2161;SDS011;1087;50.226;8.682;2022-11-02T14:50:41;9.17;;;2.10;;
2161;SDS011;1087;50.226;8.682;2022-11-02T14:53:15;7.23;;;2.27;;
2161;SDS011;1087;50.226;8.682;2022-11-02T14:55:51;4.77;;;2.33;;
2161;SDS011;1087;50.226;8.682;2022-11-02T14:58:19;4.00;;;1.90;;
2161;SDS011;1087;50.226;8.682;2022-11-02T15:03:57;7.63;;;2.20;;
2161;SDS011;1087;50.226;8.682;2022-11-02T15:19:35;5.30;;;2.10;;
2161;SDS011;1087;50.226;8.682;2022-11-02T15:27:55;8.90;;;2.97;;
2161;SDS011;1087;50.226;8.682;2022-11-02T15:30:29;5.60;;;2.53;;
2161;SDS011;1087;50.226;8.682;2022-11-02T15:33:00;3.27;;;1.70;;
2161;SDS011;1087;50.226;8.682;2022-11-02T15:35:35;9.50;;;2.60;;
2161;SDS011;1087;50.226;8.682;2022-11-02T15:38:02;7.40;;;1.97;;
2161;SDS011;1087;50.226;8.682;2022-11-02T15:40:33;4.30;;;1.70;;
2161;SDS011;1087;50.226;8.682;2022-11-02T15:43:31;4.43;;;2.10;;
2161;SDS011;1087;50.226;8.682;2022-11-02T15:52:23;4.00;;;1.83;;
2161;SDS011;1087;50.226;8.682;2022-11-02T16:00:37;6.63;;;2.07;;
2161;SDS011;1087;50.226;8.682;2022-11-02T16:03:03;5.60;;;2.17;;
2161;SDS011;1087;50.226;8.682;2022-11-02T16:05:31;5.23;;;2.40;;
2161;SDS011;1087;50.226;8.682;2022-11-02T16:08:19;6.83;;;2.33;;
2161;SDS011;1087;50.226;8.682;2022-11-02T16:11:04;6.57;;;2.77;;
2161;SDS011;1087;50.226;8.682;2022-11-02T16:13:31;7.57;;;3.80;;
2161;SDS011;1087;50.226;8.682;2022-11-02T16:16:01;6.07;;;3.50;;
2161;SDS011;1087;50.226;8.682;2022-11-02T16:18:34;7.53;;;3.93;;
2161;SDS011;1087;50.226;8.682;2022-11-02T16:21:01;13.07;;;5.70;;
2161;SDS011;1087;50.226;8.682;2022-11-02T16:23:30;8.50;;;4.93;;
2161;SDS011;1087;50.226;8.682;2022-11-02T16:26:13;7.30;;;3.27;;
2161;SDS011;1087;50.226;8.682;2022-11-02T16:28:49;11.30;;;3.47;;
2161;SDS011;1087;50.226;8.682;2022-11-02T16:31:20;7.37;;;4.50;;
2161;SDS011;1087;50.226;8.682;2022-11-02T16:33:51;10.63;;;5.17;;
2161;SDS011;1087;50.226;8.682;2022-11-02T16:36:28;10.47;;;4.60;;
2161;SDS011;1087;50.226;8.682;2022-11-02T16:38:59;7.53;;;4.17;;
2161;SDS011;1087;50.226;8.682;2022-11-02T16:41:29;15.00;;;4.47;;
2161;SDS011;1087;50.226;8.682;2022-11-02T16:43:57;5.23;;;3.63;;
2161;SDS011;1087;50.226;8.682;2022-11-02T16:46:40;5.20;;;3.73;;
2161;SDS011;1087;50.226;8.682;2022-11-02T16:49:22;7.00;;;3.50;;
2161;SDS011;1087;50.226;8.682;2022-11-02T16:51:56;5.07;;;3.03;;
2161;SDS011;1087;50.226;8.682;2022-11-02T16:54:28;6.20;;;3.20;;
2161;SDS011;1087;50.226;8.682;2022-11-02T16:57:24;7.70;;;3.53;;
2161;SDS011;1087;50.226;8.682;2022-11-02T17:02:18;7.73;;;3.63;;
2161;SDS011;1087;50.226;8.682;2022-11-02T17:04:56;6.13;;;3.93;;
2161;SDS011;1087;50.226;8.682;2022-11-02T17:07:30;6.87;;;3.80;;
2161;SDS011;1087;50.226;8.682;2022-11-02T17:09:58;7.33;;;3.73;;
2161;SDS011;1087;50.226;8.682;2022-11-02T17:12:33;8.57;;;4.37;;
2161;SDS011;1087;50.226;8.682;2022-11-02T17:15:02;11.00;;;4.50;;
2161;SDS011;1087;50.226;8.682;2022-11-02T17:17:38;6.63;;;4.53;;
2161;SDS011;1087;50.226;8.682;2022-11-02T17:22:30;11.07;;;6.10;;
2161;SDS011;1087;50.226;8.682;2022-11-02T17:25:02;12.63;;;7.47;;
2161;SDS011;1087;50.226;8.682;2022-11-02T17:27:34;10.20;;;5.67;;
2161;SDS011;1087;50.226;8.682;2022-11-02T17:30:00;6.30;;;5.43;;
2161;SDS011;1087;50.226;8.682;2022-11-02T17:32:25;10.60;;;5.13;;
2161;SDS011;1087;50.226;8.682;2022-11-02T17:34:52;9.30;;;6.00;;
2161;SDS011;1087;50.226;8.682;2022-11-02T17:37:20;5.60;;;4.90;;
2161;SDS011;1087;50.226;8.682;2022-11-02T17:39:52;8.87;;;5.50;;
2161;SDS011;1087;50.226;8.682;2022-11-02T17:42:18;9.10;;;5.20;;
2161;SDS011;1087;50.226;8.682;2022-11-02T17:45:21;8.27;;;5.50;;
2161;SDS011;1087;50.226;8.682;2022-11-02T17:48:04;9.67;;;5.37;;
2161;SDS011;1087;50.226;8.682;2022-11-02T17:50:32;11.17;;;5.43;;
2161;SDS011;1087;50.226;8.682;2022-11-02T17:52:59;10.43;;;5.77;;
2161;SDS011;1087;50.226;8.682;2022-11-02T17:55:26;11.43;;;6.67;;
2161;SDS011;1087;50.226;8.682;2022-11-02T17:57:54;10.23;;;7.33;;
2161;SDS011;1087;50.226;8.682;2022-11-02T18:00:21;16.00;;;10.57;;
2161;SDS011;1087;50.226;8.682;2022-11-02T18:02:47;12.73;;;10.53;;
2161;SDS011;1087;50.226;8.682;2022-11-02T18:05:25;8.80;;;6.80;;
2161;SDS011;1087;50.226;8.682;2022-11-02T18:07:53;12.40;;;5.60;;
2161;SDS011;1087;50.226;8.682;2022-11-02T18:10:23;8.00;;;5.30;;
2161;SDS011;1087;50.226;8.682;2022-11-02T18:12:51;8.17;;;4.33;;
2161;SDS011;1087;50.226;8.682;2022-11-02T18:15:18;8.00;;;4.50;;